createdAt,value
2018-02-17T00:01:01.057Z,93.60
2018-02-17T00:03:29.297Z,93.90
2018-02-17T00:05:56.768Z,93.90
2018-02-17T00:08:24.224Z,94.50
2018-02-17T00:10:51.702Z,94.40
2018-02-17T00:13:19.164Z,93.40
2018-02-17T00:15:46.635Z,93.20
2018-02-17T00:18:14.097Z,92.80
2018-02-17T00:20:41.561Z,92.70
2018-02-17T00:23:09.033Z,93.30
2018-02-17T00:25:36.509Z,93.10
2018-02-17T00:28:04.733Z,93.20
2018-02-17T00:30:32.192Z,93.20
2018-02-17T00:32:59.671Z,93.60
2018-02-17T00:35:27.171Z,94.40
2018-02-17T00:37:54.625Z,94.80
2018-02-17T00:40:22.113Z,94.70
2018-02-17T00:42:49.556Z,94.70
2018-02-17T00:45:17.024Z,94.90
2018-02-17T00:47:44.483Z,94.80
2018-02-17T00:50:11.991Z,94.60
2018-02-17T00:52:39.447Z,94.60
2018-02-17T00:55:06.909Z,94.70
2018-02-17T00:57:34.373Z,94.70
2018-02-17T01:00:01.821Z,94.70
2018-02-17T01:02:30.045Z,94.20
2018-02-17T01:04:57.500Z,94.20
2018-02-17T01:07:24.965Z,94.70
2018-02-17T01:09:52.422Z,95.00
2018-02-17T01:12:19.889Z,93.90
2018-02-17T01:14:47.347Z,93.70
2018-02-17T01:17:14.825Z,93.90
2018-02-17T01:19:42.287Z,94.00
2018-02-17T01:22:09.750Z,93.70
2018-02-17T01:24:37.206Z,93.70
2018-02-17T01:27:04.685Z,93.90
2018-02-17T01:29:32.145Z,93.90
2018-02-17T01:31:59.601Z,94.20
2018-02-17T01:34:27.068Z,94.20
2018-02-17T01:36:54.528Z,94.00
2018-02-17T01:39:21.994Z,94.40
2018-02-17T01:41:49.460Z,94.50
2018-02-17T01:44:16.917Z,94.80
2018-02-17T01:46:44.401Z,94.80
2018-02-17T01:49:11.853Z,94.90
2018-02-17T01:51:39.345Z,95.00
2018-02-17T01:54:06.797Z,94.40
2018-02-17T01:56:34.249Z,93.80
2018-02-17T01:59:02.477Z,94.10
2018-02-17T02:01:30.693Z,94.20
2018-02-17T02:03:58.149Z,94.20
2018-02-17T02:06:25.602Z,93.90
2018-02-17T02:08:53.058Z,93.80
2018-02-17T02:11:20.512Z,93.70
2018-02-17T02:13:48.741Z,93.70
2018-02-17T02:16:16.203Z,94.00
2018-02-17T02:18:43.670Z,93.60
2018-02-17T02:21:11.131Z,93.50
2018-02-17T02:23:38.590Z,93.70
2018-02-17T02:26:06.065Z,93.90
2018-02-17T02:28:33.529Z,93.90
2018-02-17T02:31:01.018Z,93.90
2018-02-17T02:33:28.464Z,93.70
2018-02-17T02:35:55.923Z,93.70
2018-02-17T02:38:23.387Z,94.00
2018-02-17T02:40:50.853Z,93.90
2018-02-17T02:43:18.307Z,94.00
2018-02-17T02:45:45.764Z,93.70
2018-02-17T02:48:13.234Z,93.60
2018-02-17T02:50:40.694Z,93.70
2018-02-17T02:53:08.156Z,93.50
2018-02-17T02:55:35.605Z,93.80
2018-02-17T02:58:03.065Z,93.70
2018-02-17T03:00:30.518Z,93.60
2018-02-17T03:02:57.985Z,93.90
2018-02-17T03:05:25.430Z,94.20
2018-02-17T03:07:52.888Z,94.20
2018-02-17T03:10:20.353Z,94.50
2018-02-17T03:12:47.815Z,94.30
2018-02-17T03:15:15.313Z,94.40
2018-02-17T03:17:42.773Z,94.10
2018-02-17T03:20:10.229Z,94.30
2018-02-17T03:22:37.674Z,94.50
2018-02-17T03:25:05.926Z,94.30
2018-02-17T03:27:33.367Z,94.30
2018-02-17T03:30:01.599Z,94.70
2018-02-17T03:32:29.867Z,94.70
2018-02-17T03:34:57.326Z,94.80
2018-02-17T03:37:24.797Z,94.70
2018-02-17T03:39:52.260Z,94.00
2018-02-17T03:42:19.711Z,94.30
2018-02-17T03:44:47.169Z,94.10
2018-02-17T03:47:14.616Z,93.90
2018-02-17T03:49:42.084Z,94.00
2018-02-17T03:52:09.545Z,94.00
2018-02-17T03:54:37.004Z,94.60
2018-02-17T03:57:04.465Z,94.60
2018-02-17T03:59:31.928Z,94.70
2018-02-17T04:01:59.388Z,94.30
2018-02-17T04:04:26.861Z,94.00
2018-02-17T04:06:54.317Z,93.80
2018-02-17T04:09:21.777Z,94.50
2018-02-17T04:11:49.250Z,94.80
2018-02-17T04:14:16.713Z,94.90
2018-02-17T04:16:44.163Z,94.80
2018-02-17T04:19:11.636Z,94.50
2018-02-17T04:21:39.088Z,94.30
2018-02-17T04:24:06.561Z,94.90
2018-02-17T04:26:34.021Z,95.20
2018-02-17T04:29:01.480Z,94.40
2018-02-17T04:31:28.936Z,94.20
2018-02-17T04:33:56.388Z,94.60
2018-02-17T04:36:23.856Z,94.90
2018-02-17T04:38:51.325Z,94.80
2018-02-17T04:41:20.216Z,94.50
2018-02-17T04:43:53.268Z,94.50
2018-02-17T04:46:23.323Z,94.50
2018-02-17T04:48:59.284Z,94.40
2018-02-17T04:51:27.537Z,94.40
2018-02-17T04:57:02.501Z,94.30
2018-02-17T04:59:35.552Z,94.30
2018-02-17T05:02:17.896Z,94.40
2018-02-17T05:04:45.353Z,94.60
2018-02-17T05:07:13.373Z,94.70
2018-02-17T05:09:40.828Z,94.70
2018-02-17T05:12:08.286Z,94.60
2018-02-17T05:14:37.578Z,94.20
2018-02-17T05:17:07.656Z,94.30
2018-02-17T05:19:55.605Z,94.70
2018-02-17T05:22:26.656Z,94.60
2018-02-17T05:24:57.021Z,94.60
2018-02-17T05:27:28.121Z,94.50
2018-02-17T05:33:02.060Z,94.60
2018-02-17T05:35:30.333Z,94.50
2018-02-17T05:37:57.795Z,94.40
2018-02-17T05:40:40.120Z,94.50
2018-02-17T05:43:07.578Z,94.40
2018-02-17T05:45:49.920Z,94.40
2018-02-17T05:48:18.148Z,94.10
2018-02-17T05:50:45.622Z,94.10
2018-02-17T05:53:13.088Z,94.10
2018-02-17T05:55:40.607Z,93.90
2018-02-17T05:58:08.058Z,93.80
2018-02-17T06:00:35.508Z,94.00
2018-02-17T06:03:03.736Z,94.00
2018-02-17T06:05:31.190Z,94.00
2018-02-17T06:07:58.648Z,94.70
2018-02-17T06:10:26.098Z,94.80
2018-02-17T06:12:53.560Z,95.00
2018-02-17T06:15:21.020Z,95.00
2018-02-17T06:17:48.490Z,94.30
2018-02-17T06:20:15.949Z,94.40
2018-02-17T06:22:43.410Z,94.50
2018-02-17T06:25:10.870Z,94.20
2018-02-17T06:27:38.336Z,94.00
2018-02-17T06:30:05.797Z,94.10
2018-02-17T06:32:33.264Z,94.00
2018-02-17T06:35:00.718Z,94.30
2018-02-17T06:37:28.204Z,94.60
2018-02-17T06:39:55.651Z,95.00
2018-02-17T06:42:23.116Z,94.90
2018-02-17T06:44:50.566Z,94.60
2018-02-17T06:47:18.029Z,94.50
2018-02-17T06:49:45.508Z,94.30
2018-02-17T06:52:12.953Z,94.70
2018-02-17T06:54:40.414Z,94.70
2018-02-17T06:57:07.884Z,94.40
2018-02-17T06:59:35.349Z,94.60
2018-02-17T07:02:02.801Z,95.00
2018-02-17T07:04:30.265Z,95.20
2018-02-17T07:06:57.712Z,94.70
2018-02-17T07:09:25.179Z,94.70
2018-02-17T07:11:52.641Z,94.80
2018-02-17T07:14:20.098Z,94.70
2018-02-17T07:16:47.561Z,94.70
2018-02-17T07:19:15.045Z,94.70
2018-02-17T07:21:42.506Z,94.30
2018-02-17T07:24:09.967Z,94.10
2018-02-17T07:26:37.427Z,93.90
2018-02-17T07:29:04.888Z,93.80
2018-02-17T07:31:32.361Z,93.90
2018-02-17T07:33:59.825Z,94.00
2018-02-17T07:36:27.271Z,94.20
2018-02-17T07:38:54.746Z,94.20
2018-02-17T07:41:22.202Z,94.50
2018-02-17T07:43:49.660Z,94.30
2018-02-17T07:46:17.125Z,94.20
2018-02-17T07:48:44.599Z,94.30
2018-02-17T07:51:12.045Z,94.30
2018-02-17T07:53:39.514Z,94.70
2018-02-17T07:56:06.972Z,94.50
2018-02-17T07:58:34.431Z,94.60
2018-02-17T08:01:01.897Z,94.60
2018-02-17T08:03:29.362Z,94.40
2018-02-17T08:05:56.820Z,94.70
2018-02-17T08:08:24.279Z,94.40
2018-02-17T08:10:51.748Z,94.60
2018-02-17T08:13:19.214Z,94.50
2018-02-17T08:15:46.673Z,94.70
2018-02-17T08:18:14.141Z,94.90
2018-02-17T08:20:41.607Z,94.80
2018-02-17T08:23:09.064Z,94.70
2018-02-17T08:25:36.524Z,94.70
2018-02-17T08:28:03.986Z,94.70
2018-02-17T08:30:31.450Z,94.70
2018-02-17T08:32:58.908Z,94.60
2018-02-17T08:35:26.372Z,94.80
2018-02-17T08:37:53.836Z,94.60
2018-02-17T08:40:21.294Z,94.80
2018-02-17T08:42:48.749Z,94.90
2018-02-17T08:45:16.228Z,94.70
2018-02-17T08:47:43.685Z,95.00
2018-02-17T08:50:11.144Z,95.30
2018-02-17T08:52:38.608Z,95.10
2018-02-17T08:55:06.067Z,94.60
2018-02-17T08:57:33.522Z,94.80
2018-02-17T09:00:00.977Z,95.00
2018-02-17T09:02:29.203Z,95.10
2018-02-17T09:04:56.667Z,95.10
2018-02-17T09:07:24.131Z,95.00
2018-02-17T09:09:51.582Z,94.90
2018-02-17T09:12:19.049Z,94.70
2018-02-17T09:14:46.502Z,94.70
2018-02-17T09:17:13.980Z,94.60
2018-02-17T09:19:41.440Z,94.50
2018-02-17T09:22:08.909Z,94.60
2018-02-17T09:24:36.372Z,94.60
2018-02-17T09:27:03.826Z,94.50
2018-02-17T09:29:31.301Z,94.60
2018-02-17T09:31:59.720Z,94.80
2018-02-17T09:34:27.954Z,94.40
2018-02-17T09:36:55.413Z,94.40
2018-02-17T09:39:22.874Z,94.60
2018-02-17T09:41:50.324Z,94.40
2018-02-17T09:44:17.801Z,94.50
2018-02-17T09:46:45.269Z,94.60
2018-02-17T09:49:12.719Z,94.70
2018-02-17T09:51:40.185Z,94.40
2018-02-17T09:54:07.636Z,94.30
2018-02-17T09:56:35.106Z,94.30
2018-02-17T09:59:02.572Z,94.60
2018-02-17T10:01:30.027Z,94.90
2018-02-17T10:03:57.548Z,94.70
2018-02-17T10:06:24.941Z,94.60
2018-02-17T10:08:52.401Z,94.50
2018-02-17T10:11:19.879Z,94.30
2018-02-17T10:13:47.329Z,94.40
2018-02-17T10:16:14.777Z,94.50
2018-02-17T10:18:42.238Z,94.40
2018-02-17T10:21:09.689Z,94.60
2018-02-17T10:23:37.917Z,94.50
2018-02-17T10:26:05.370Z,94.40
2018-02-17T10:28:32.842Z,94.70
2018-02-17T10:31:00.310Z,95.20
2018-02-17T10:33:27.765Z,95.20
2018-02-17T10:35:55.229Z,95.10
2018-02-17T10:38:22.697Z,95.00
2018-02-17T10:40:50.152Z,95.20
2018-02-17T10:43:17.615Z,95.10
2018-02-17T10:45:45.064Z,95.00
2018-02-17T10:48:12.531Z,95.30
2018-02-17T10:50:40.018Z,95.40
2018-02-17T10:53:07.462Z,95.20
2018-02-17T10:55:37.814Z,95.80
2018-02-17T10:58:05.282Z,95.70
2018-02-17T11:00:32.725Z,95.60
2018-02-17T11:03:00.183Z,95.50
2018-02-17T11:05:27.642Z,95.60
2018-02-17T11:07:55.105Z,95.30
2018-02-17T11:10:22.569Z,95.60
2018-02-17T11:12:50.024Z,95.50
2018-02-17T11:15:17.480Z,95.90
2018-02-17T11:17:44.935Z,95.90
2018-02-17T11:20:12.401Z,95.90
2018-02-17T11:22:39.856Z,95.70
2018-02-17T11:25:07.317Z,95.60
2018-02-17T11:27:34.776Z,95.80
2018-02-17T11:30:02.247Z,95.80
2018-02-17T11:32:29.693Z,95.90
2018-02-17T11:34:57.153Z,95.90
2018-02-17T11:37:24.604Z,95.80
2018-02-17T11:39:52.833Z,95.80
2018-02-17T11:42:20.291Z,95.80
2018-02-17T11:44:47.758Z,95.80
2018-02-17T11:47:15.216Z,95.90
2018-02-17T11:49:42.678Z,96.00
2018-02-17T11:52:10.137Z,95.80
2018-02-17T11:54:37.608Z,95.90
2018-02-17T11:57:05.077Z,95.90
2018-02-17T11:59:32.599Z,95.90
2018-02-17T12:01:59.994Z,95.80
2018-02-17T12:04:27.457Z,95.70
2018-02-17T12:06:54.914Z,95.80
2018-02-17T12:09:22.381Z,95.80
2018-02-17T12:11:49.840Z,96.00
2018-02-17T12:14:17.316Z,95.80
2018-02-17T12:16:44.772Z,95.90
2018-02-17T12:19:12.220Z,95.60
2018-02-17T12:21:39.683Z,95.50
2018-02-17T12:24:07.133Z,95.90
2018-02-17T12:26:34.610Z,95.80
2018-02-17T12:29:02.078Z,95.60
2018-02-17T12:31:29.548Z,95.50
2018-02-17T12:33:57.009Z,95.30
2018-02-17T12:36:24.480Z,95.80
2018-02-17T12:38:51.937Z,95.70
2018-02-17T12:41:19.410Z,95.60
2018-02-17T12:43:46.857Z,95.80
2018-02-17T12:46:14.317Z,95.80
2018-02-17T12:48:41.777Z,95.90
2018-02-17T12:51:09.245Z,95.90
2018-02-17T12:53:36.704Z,95.50
2018-02-17T12:56:04.165Z,95.60
2018-02-17T12:58:31.643Z,95.50
2018-02-17T13:00:59.113Z,95.40
2018-02-17T13:03:26.553Z,95.30
2018-02-17T13:05:54.013Z,95.60
2018-02-17T13:08:21.470Z,95.60
2018-02-17T13:10:48.937Z,95.50
2018-02-17T13:13:16.393Z,95.60
2018-02-17T13:15:43.869Z,95.70
2018-02-17T13:18:11.330Z,95.70
2018-02-17T13:20:38.789Z,95.50
2018-02-17T13:23:07.025Z,95.60
2018-02-17T13:25:35.245Z,95.80
2018-02-17T13:28:02.704Z,95.80
2018-02-17T13:30:30.164Z,95.80
2018-02-17T13:32:57.625Z,95.50
2018-02-17T13:35:25.078Z,95.90
2018-02-17T13:37:52.541Z,95.90
2018-02-17T13:40:19.994Z,95.60
2018-02-17T13:42:47.466Z,95.80
2018-02-17T13:45:14.961Z,95.70
2018-02-17T13:47:42.445Z,95.80
2018-02-17T13:50:09.897Z,95.90
2018-02-17T13:52:37.355Z,95.70
2018-02-17T13:55:04.813Z,95.80
2018-02-17T13:57:32.273Z,95.80
2018-02-17T13:59:59.734Z,95.80
2018-02-17T14:02:27.982Z,95.60
2018-02-17T14:04:55.433Z,95.60
2018-02-17T14:07:22.913Z,95.60
2018-02-17T14:09:50.373Z,95.60
2018-02-17T14:12:17.833Z,95.50
2018-02-17T14:14:45.298Z,95.50
2018-02-17T14:17:12.765Z,95.60
2018-02-17T14:19:40.238Z,95.70
2018-02-17T14:22:07.705Z,95.90
2018-02-17T14:24:35.157Z,95.90
2018-02-17T14:27:02.616Z,96.10
2018-02-17T14:29:30.080Z,96.00
2018-02-17T14:31:57.547Z,95.90
2018-02-17T14:34:25.016Z,96.10
2018-02-17T14:36:52.478Z,96.10
2018-02-17T14:39:19.946Z,95.90
2018-02-17T14:41:47.402Z,96.30
2018-02-17T14:44:14.864Z,96.00
2018-02-17T14:46:42.330Z,96.10
2018-02-17T14:49:09.788Z,96.20
2018-02-17T14:51:37.253Z,95.90
2018-02-17T14:54:04.724Z,96.00
2018-02-17T14:56:32.197Z,96.00
2018-02-17T14:58:59.654Z,96.10
2018-02-17T15:01:27.100Z,96.00
2018-02-17T15:03:54.566Z,95.90
2018-02-17T15:06:22.031Z,95.90
2018-02-17T15:08:49.501Z,96.00
2018-02-17T15:11:16.969Z,96.20
2018-02-17T15:13:44.434Z,95.90
2018-02-17T15:16:11.892Z,96.00
2018-02-17T15:18:39.358Z,96.00
2018-02-17T15:21:06.804Z,96.10
2018-02-17T15:23:35.028Z,96.00
2018-02-17T15:26:03.258Z,96.10
2018-02-17T15:28:30.756Z,96.10
2018-02-17T15:30:58.198Z,96.10
2018-02-17T15:33:25.662Z,96.00
2018-02-17T15:35:53.127Z,96.00
2018-02-17T15:38:20.597Z,95.90
2018-02-17T15:40:48.060Z,96.10
2018-02-17T15:43:15.508Z,95.80
2018-02-17T15:45:42.969Z,95.90
2018-02-17T15:48:10.456Z,95.70
2018-02-17T15:50:37.908Z,95.80
2018-02-17T15:53:05.363Z,96.00
2018-02-17T15:55:32.822Z,95.90
2018-02-17T15:58:00.277Z,95.90
2018-02-17T16:00:27.750Z,96.10
2018-02-17T16:02:55.205Z,96.30
2018-02-17T16:05:23.461Z,96.10
2018-02-17T16:07:50.913Z,96.10
2018-02-17T16:10:18.477Z,96.10
2018-02-17T16:12:45.920Z,96.00
2018-02-17T16:15:14.148Z,95.90
2018-02-17T16:17:41.609Z,95.90
2018-02-17T16:20:09.085Z,95.80
2018-02-17T16:22:36.536Z,95.80
2018-02-17T16:25:04.009Z,95.80
2018-02-17T16:27:31.462Z,96.00
2018-02-17T16:29:58.925Z,96.00
2018-02-17T16:32:26.382Z,96.00
2018-02-17T16:34:53.844Z,96.10
2018-02-17T16:37:21.309Z,96.10
2018-02-17T16:39:48.775Z,95.90
2018-02-17T16:42:16.233Z,95.70
2018-02-17T16:44:43.707Z,95.70
2018-02-17T16:47:11.163Z,95.70
2018-02-17T16:49:38.630Z,95.50
2018-02-17T16:52:06.138Z,95.60
2018-02-17T16:54:33.569Z,95.80
2018-02-17T16:57:01.040Z,95.70
2018-02-17T16:59:28.484Z,95.80
2018-02-17T17:01:55.962Z,95.60
2018-02-17T17:04:23.421Z,95.70
2018-02-17T17:06:50.886Z,95.70
2018-02-17T17:09:18.340Z,95.60
2018-02-17T17:11:45.801Z,95.60
2018-02-17T17:14:13.276Z,95.80
2018-02-17T17:16:40.748Z,95.70
2018-02-17T17:19:08.988Z,95.60
2018-02-17T17:21:36.453Z,95.60
2018-02-17T17:24:03.908Z,95.70
2018-02-17T17:26:31.374Z,95.60
2018-02-17T17:28:58.842Z,95.70
2018-02-17T17:31:26.299Z,95.70
2018-02-17T17:33:53.763Z,95.80
2018-02-17T17:36:21.225Z,96.00
2018-02-17T17:38:48.672Z,95.80
2018-02-17T17:41:16.149Z,95.90
2018-02-17T17:43:43.602Z,95.80
2018-02-17T17:46:11.062Z,95.80
2018-02-17T17:48:38.537Z,96.00
2018-02-17T17:51:05.983Z,95.90
2018-02-17T17:53:33.449Z,95.80
2018-02-17T17:56:00.900Z,95.90
2018-02-17T17:58:28.557Z,96.10
2018-02-17T18:00:56.053Z,95.80
2018-02-17T18:03:23.522Z,95.60
2018-02-17T18:05:51.984Z,95.70
2018-02-17T18:08:19.452Z,95.80
2018-02-17T18:10:46.900Z,95.70
2018-02-17T18:13:14.365Z,95.90
2018-02-17T18:15:41.846Z,95.70
2018-02-17T18:18:09.309Z,95.60
2018-02-17T18:20:36.775Z,95.90
2018-02-17T18:23:04.241Z,95.80
2018-02-17T18:25:31.701Z,95.90
2018-02-17T18:27:59.165Z,95.80
2018-02-17T18:30:26.620Z,95.80
2018-02-17T18:32:54.094Z,95.70
2018-02-17T18:35:22.313Z,95.70
2018-02-17T18:37:50.548Z,95.80
2018-02-17T18:40:18.020Z,95.80
2018-02-17T18:42:45.488Z,95.90
2018-02-17T18:45:12.944Z,95.90
2018-02-17T18:47:40.413Z,95.60
2018-02-17T18:50:07.868Z,95.90
2018-02-17T18:52:35.338Z,95.80
2018-02-17T18:55:02.785Z,95.70
2018-02-17T18:57:30.245Z,95.70
2018-02-17T18:59:57.713Z,95.80
2018-02-17T19:02:25.163Z,95.90
2018-02-17T19:04:52.673Z,95.80
2018-02-17T19:07:20.086Z,95.80
2018-02-17T19:09:47.557Z,96.10
2018-02-17T19:12:15.023Z,96.30
2018-02-17T19:14:43.251Z,96.00
2018-02-17T19:17:11.490Z,96.20
2018-02-17T19:19:38.960Z,96.20
2018-02-17T19:22:06.410Z,96.10
2018-02-17T19:24:33.865Z,96.10
2018-02-17T19:27:01.327Z,96.10
2018-02-17T19:29:28.800Z,95.90
2018-02-17T19:31:56.250Z,96.00
2018-02-17T19:34:23.718Z,96.10
2018-02-17T19:36:51.178Z,96.10
2018-02-17T19:39:18.638Z,96.10
2018-02-17T19:41:46.100Z,96.30
2018-02-17T19:44:13.571Z,96.30
2018-02-17T19:46:41.019Z,96.00
2018-02-17T19:49:08.480Z,95.90
2018-02-17T19:51:35.949Z,96.20
2018-02-17T19:54:03.430Z,96.10
2018-02-17T19:56:30.884Z,95.90
2018-02-17T19:58:58.344Z,96.00
2018-02-17T20:01:25.797Z,96.00
2018-02-17T20:03:53.267Z,96.00
2018-02-17T20:06:20.733Z,96.10
2018-02-17T20:08:48.185Z,96.10
2018-02-17T20:11:15.651Z,96.20
2018-02-17T20:13:43.126Z,96.10
2018-02-17T20:16:10.577Z,95.80
2018-02-17T20:18:38.057Z,95.90
2018-02-17T20:21:06.294Z,95.80
2018-02-17T20:23:33.746Z,95.80
2018-02-17T20:26:01.216Z,95.70
2018-02-17T20:28:28.677Z,95.80
2018-02-17T20:30:56.141Z,95.60
2018-02-17T20:33:23.605Z,96.00
2018-02-17T20:35:51.074Z,95.80
2018-02-17T20:38:18.518Z,95.60
2018-02-17T20:40:45.977Z,95.60
2018-02-17T20:43:13.430Z,95.70
2018-02-17T20:45:41.660Z,95.60
2018-02-17T20:48:09.122Z,95.60
2018-02-17T20:50:36.580Z,95.60
2018-02-17T20:53:04.029Z,95.50
2018-02-17T20:55:31.498Z,95.50
2018-02-17T20:57:58.955Z,95.40
2018-02-17T21:00:26.429Z,95.50
2018-02-17T21:02:53.927Z,95.50
2018-02-17T21:05:21.356Z,95.50
2018-02-17T21:07:48.824Z,95.40
2018-02-17T21:10:16.304Z,95.30
2018-02-17T21:12:43.756Z,95.50
2018-02-17T21:15:11.221Z,95.50
2018-02-17T21:17:38.668Z,95.30
2018-02-17T21:20:06.128Z,95.20
2018-02-17T21:22:33.590Z,95.40
2018-02-17T21:25:01.053Z,95.20
2018-02-17T21:27:28.509Z,95.30
2018-02-17T21:29:55.978Z,95.50
2018-02-17T21:32:23.460Z,95.70
2018-02-17T21:34:50.953Z,95.70
2018-02-17T21:37:19.186Z,95.90
2018-02-17T21:39:46.657Z,95.90
2018-02-17T21:42:14.121Z,95.90
2018-02-17T21:44:41.612Z,95.60
2018-02-17T21:47:09.834Z,96.30
2018-02-17T21:49:37.299Z,95.90
2018-02-17T21:52:04.760Z,96.20
2018-02-17T21:54:32.222Z,96.20
2018-02-17T21:56:59.685Z,95.90
2018-02-17T21:59:27.138Z,95.60
2018-02-17T22:01:54.579Z,95.90
2018-02-17T22:04:22.805Z,96.10
2018-02-17T22:06:50.268Z,96.10
2018-02-17T22:09:17.718Z,96.30
2018-02-17T22:11:45.186Z,96.20
2018-02-17T22:14:12.642Z,96.30
2018-02-17T22:16:40.104Z,96.30
2018-02-17T22:19:07.566Z,96.40
2018-02-17T22:21:35.070Z,96.70
2018-02-17T22:24:02.520Z,96.50
2018-02-17T22:26:29.980Z,96.50
2018-02-17T22:28:57.441Z,96.30
2018-02-17T22:31:24.909Z,96.60
2018-02-17T22:33:52.382Z,96.60
2018-02-17T22:36:19.841Z,96.60
2018-02-17T22:38:47.302Z,96.50
2018-02-17T22:41:14.754Z,96.30
2018-02-17T22:43:42.247Z,96.30
2018-02-17T22:46:09.665Z,96.30
2018-02-17T22:48:37.157Z,96.20
2018-02-17T22:51:04.617Z,96.10
2018-02-17T22:53:32.074Z,96.10
2018-02-17T22:55:59.535Z,95.90
2018-02-17T22:58:26.989Z,95.60
2018-02-17T23:00:54.460Z,95.80
2018-02-17T23:03:21.916Z,95.90
2018-02-17T23:05:49.385Z,96.10
2018-02-17T23:08:16.851Z,96.30
2018-02-17T23:10:44.301Z,96.40
2018-02-17T23:13:11.769Z,96.20
2018-02-17T23:15:39.240Z,96.00
2018-02-17T23:18:06.705Z,96.10
2018-02-17T23:20:34.162Z,96.10
2018-02-17T23:23:01.624Z,96.00
2018-02-17T23:25:29.096Z,95.80
2018-02-17T23:27:56.548Z,95.80
2018-02-17T23:30:24.007Z,95.90
2018-02-17T23:32:51.464Z,96.10
2018-02-17T23:35:18.937Z,96.40
2018-02-17T23:37:46.405Z,96.60
2018-02-17T23:40:13.877Z,96.30
2018-02-17T23:42:41.337Z,96.30
2018-02-17T23:45:08.793Z,96.50
2018-02-17T23:47:36.254Z,96.50
2018-02-17T23:50:03.717Z,96.40
2018-02-17T23:52:31.205Z,96.20
2018-02-17T23:54:58.636Z,96.40
2018-02-17T23:57:26.868Z,96.50
2018-02-17T23:59:55.100Z,96.20
